createdAt,value
2019-02-20T00:00:00.571Z,55.93
2019-02-20T00:01:05.798Z,55.97
2019-02-20T00:02:09.343Z,55.92
2019-02-20T00:03:13.012Z,55.96
2019-02-20T00:04:16.456Z,55.94
2019-02-20T00:05:19.961Z,55.97
2019-02-20T00:06:23.608Z,55.96
2019-02-20T00:07:27.151Z,56.02
2019-02-20T00:08:30.669Z,56.09
2019-02-20T00:09:34.164Z,56.01
2019-02-20T00:10:37.693Z,56.08
2019-02-20T00:11:41.189Z,56.07
2019-02-20T00:12:44.757Z,56.26
2019-02-20T00:13:48.234Z,56.34
2019-02-20T00:14:51.754Z,56.30
2019-02-20T00:15:55.397Z,56.41
2019-02-20T00:16:59.005Z,56.37
2019-02-20T00:18:02.522Z,56.30
2019-02-20T00:19:06.057Z,56.34
2019-02-20T00:20:09.611Z,56.72
2019-02-20T00:21:15.967Z,56.90
2019-02-20T00:22:19.501Z,56.92
2019-02-20T00:23:22.967Z,57.01
2019-02-20T00:24:26.480Z,56.93
2019-02-20T00:25:30.046Z,57.16
2019-02-20T00:26:33.744Z,57.44
2019-02-20T00:27:37.302Z,57.62
2019-02-20T00:28:40.771Z,57.58
2019-02-20T00:29:44.283Z,57.56
2019-02-20T00:30:47.804Z,57.54
2019-02-20T00:31:51.307Z,57.50
2019-02-20T00:32:54.826Z,57.52
2019-02-20T00:33:58.316Z,57.50
2019-02-20T00:35:01.795Z,57.56
2019-02-20T00:36:05.399Z,57.52
2019-02-20T00:37:08.929Z,57.47
2019-02-20T00:38:12.478Z,57.60
2019-02-20T00:39:15.994Z,57.65
2019-02-20T00:40:19.502Z,57.66
2019-02-20T00:41:23.174Z,57.72
2019-02-20T00:42:26.656Z,57.71
2019-02-20T00:43:30.141Z,57.56
2019-02-20T00:44:38.100Z,57.34
2019-02-20T00:46:00.898Z,57.29
2019-02-20T00:47:22.321Z,57.52
2019-02-20T00:48:39.071Z,57.54
2019-02-20T00:49:43.039Z,57.58
2019-02-20T00:50:48.201Z,57.93
2019-02-20T00:51:53.334Z,57.80
2019-02-20T00:53:07.465Z,57.73
2019-02-20T00:54:10.981Z,57.55
2019-02-20T00:55:14.550Z,57.35
2019-02-20T00:56:18.081Z,57.28
2019-02-20T00:57:21.587Z,57.28
2019-02-20T00:58:25.108Z,57.27
2019-02-20T00:59:28.692Z,57.22
2019-02-20T01:00:32.257Z,57.21
2019-02-20T01:01:35.743Z,57.23
2019-02-20T01:02:39.386Z,57.28
2019-02-20T01:03:43.060Z,57.33
2019-02-20T01:04:46.574Z,57.21
2019-02-20T01:05:50.075Z,57.24
2019-02-20T01:06:53.657Z,57.20
2019-02-20T01:07:57.228Z,57.18
2019-02-20T01:09:00.734Z,57.17
2019-02-20T01:10:05.219Z,57.17
2019-02-20T01:11:08.808Z,57.18
2019-02-20T01:12:12.311Z,57.22
2019-02-20T01:13:15.812Z,57.30
2019-02-20T01:14:19.343Z,57.33
2019-02-20T01:15:22.928Z,57.26
2019-02-20T01:16:26.581Z,57.15
2019-02-20T01:17:30.049Z,57.14
2019-02-20T01:18:33.556Z,57.24
2019-02-20T01:19:37.092Z,57.27
2019-02-20T01:20:40.630Z,57.25
2019-02-20T01:21:44.209Z,57.34
2019-02-20T01:22:47.796Z,57.36
2019-02-20T01:23:51.270Z,57.42
2019-02-20T01:24:54.813Z,57.42
2019-02-20T01:25:58.322Z,57.51
2019-02-20T01:27:01.814Z,57.63
2019-02-20T01:28:05.311Z,57.74
2019-02-20T01:29:08.815Z,57.74
2019-02-20T01:30:13.174Z,57.99
2019-02-20T01:31:16.664Z,57.99
2019-02-20T01:32:20.221Z,58.01
2019-02-20T01:33:23.724Z,58.02
2019-02-20T01:34:27.213Z,58.04
2019-02-20T01:35:30.746Z,58.02
2019-02-20T01:36:34.254Z,57.93
2019-02-20T01:37:37.749Z,57.92
2019-02-20T01:38:41.241Z,57.97
2019-02-20T01:39:44.812Z,57.97
2019-02-20T01:40:48.397Z,57.96
2019-02-20T01:41:51.965Z,57.88
2019-02-20T01:42:55.461Z,57.94
2019-02-20T01:43:59.023Z,57.91
2019-02-20T01:45:02.593Z,57.98
2019-02-20T01:46:06.259Z,57.99
2019-02-20T01:47:09.758Z,58.00
2019-02-20T01:48:13.279Z,57.94
2019-02-20T01:49:16.841Z,57.92
2019-02-20T01:50:20.337Z,57.93
2019-02-20T01:51:23.845Z,57.91
2019-02-20T01:52:27.347Z,57.94
2019-02-20T01:53:30.835Z,57.94
2019-02-20T01:54:34.341Z,57.96
2019-02-20T01:55:37.828Z,57.95
2019-02-20T01:56:41.349Z,57.92
2019-02-20T01:57:44.840Z,57.93
2019-02-20T01:58:48.419Z,57.98
2019-02-20T01:59:51.935Z,58.01
2019-02-20T02:00:55.492Z,58.02
2019-02-20T02:01:59.088Z,58.02
2019-02-20T02:03:02.589Z,58.17
2019-02-20T02:04:06.153Z,58.35
2019-02-20T02:05:15.167Z,58.83
2019-02-20T02:06:15.080Z,58.93
2019-02-20T02:07:18.676Z,59.14
2019-02-20T02:08:22.302Z,59.04
2019-02-20T02:09:25.777Z,58.95
2019-02-20T02:10:29.285Z,59.09
2019-02-20T02:11:32.764Z,59.04
2019-02-20T02:12:36.281Z,58.94
2019-02-20T02:13:39.774Z,58.94
2019-02-20T02:14:43.267Z,59.01
2019-02-20T02:15:46.774Z,58.93
2019-02-20T02:16:50.280Z,58.96
2019-02-20T02:17:53.784Z,58.94
2019-02-20T02:18:57.299Z,59.04
2019-02-20T02:20:00.842Z,59.05
2019-02-20T02:21:04.343Z,59.07
2019-02-20T02:22:07.839Z,59.23
2019-02-20T02:23:19.692Z,59.20
2019-02-20T02:24:16.561Z,59.19
2019-02-20T02:25:20.106Z,59.35
2019-02-20T02:26:23.601Z,59.19
2019-02-20T02:27:27.253Z,58.88
2019-02-20T02:28:30.842Z,58.67
2019-02-20T02:29:34.368Z,58.91
2019-02-20T02:30:37.872Z,59.12
2019-02-20T02:31:41.447Z,59.06
2019-02-20T02:32:45.034Z,59.26
2019-02-20T02:33:48.545Z,59.26
2019-02-20T02:34:52.103Z,59.31
2019-02-20T02:35:55.607Z,59.24
2019-02-20T02:36:59.171Z,59.12
2019-02-20T02:38:02.676Z,59.04
2019-02-20T02:39:06.675Z,58.99
2019-02-20T02:40:10.310Z,58.96
2019-02-20T02:41:13.881Z,58.90
2019-02-20T02:42:17.380Z,59.01
2019-02-20T02:43:20.912Z,59.12
2019-02-20T02:44:24.476Z,59.13
2019-02-20T02:45:28.031Z,59.08
2019-02-20T02:46:31.662Z,59.09
2019-02-20T02:47:35.159Z,59.18
2019-02-20T02:48:38.745Z,59.01
2019-02-20T02:49:42.256Z,58.91
2019-02-20T02:50:45.741Z,58.89
2019-02-20T02:51:49.305Z,58.90
2019-02-20T02:52:52.829Z,59.03
2019-02-20T02:53:56.322Z,58.99
2019-02-20T02:54:59.913Z,58.91
2019-02-20T02:56:03.399Z,58.90
2019-02-20T02:57:06.909Z,58.96
2019-02-20T02:58:10.427Z,59.19
2019-02-20T02:59:13.923Z,59.16
2019-02-20T03:00:17.477Z,59.16
2019-02-20T03:01:20.983Z,59.01
2019-02-20T03:02:24.473Z,59.00
2019-02-20T03:03:27.962Z,58.99
2019-02-20T03:04:31.547Z,59.16
2019-02-20T03:05:35.053Z,59.08
2019-02-20T03:06:38.553Z,59.13
2019-02-20T03:07:42.108Z,59.11
2019-02-20T03:08:45.603Z,59.10
2019-02-20T03:09:49.152Z,59.12
2019-02-20T03:10:52.630Z,59.26
2019-02-20T03:11:56.121Z,59.19
2019-02-20T03:12:59.704Z,59.12
2019-02-20T03:14:03.238Z,59.16
2019-02-20T03:15:09.000Z,59.10
2019-02-20T03:16:12.558Z,59.04
2019-02-20T03:17:16.076Z,59.07
2019-02-20T03:18:19.579Z,59.13
2019-02-20T03:19:23.070Z,59.13
2019-02-20T03:20:26.647Z,59.08
2019-02-20T03:21:30.215Z,59.08
2019-02-20T03:22:33.716Z,59.05
2019-02-20T03:23:40.140Z,59.15
2019-02-20T03:24:42.427Z,58.94
2019-02-20T03:25:45.952Z,58.83
2019-02-20T03:26:49.450Z,58.79
2019-02-20T03:27:52.970Z,58.69
2019-02-20T03:28:56.572Z,58.72
2019-02-20T03:30:00.073Z,58.76
2019-02-20T03:31:03.638Z,58.72
2019-02-20T03:32:07.128Z,59.07
2019-02-20T03:33:10.649Z,59.13
2019-02-20T03:34:14.151Z,59.14
2019-02-20T03:35:17.651Z,59.20
2019-02-20T03:36:21.161Z,59.19
2019-02-20T03:37:24.692Z,59.22
2019-02-20T03:38:30.571Z,59.23
2019-02-20T03:39:33.446Z,59.19
2019-02-20T03:40:36.970Z,59.15
2019-02-20T03:41:40.484Z,59.17
2019-02-20T03:42:43.985Z,59.26
2019-02-20T03:43:47.480Z,59.25
2019-02-20T03:44:51.039Z,59.37
2019-02-20T03:45:54.643Z,59.55
2019-02-20T03:46:58.178Z,59.67
2019-02-20T03:48:04.884Z,59.68
2019-02-20T03:49:08.371Z,59.71
2019-02-20T03:50:11.929Z,59.68
2019-02-20T03:51:15.487Z,59.58
2019-02-20T03:52:19.077Z,59.56
2019-02-20T03:53:22.614Z,59.60
2019-02-20T03:54:26.209Z,59.60
2019-02-20T03:55:29.775Z,59.51
2019-02-20T03:56:33.246Z,59.60
2019-02-20T03:57:36.781Z,59.75
2019-02-20T03:58:40.247Z,59.84
2019-02-20T03:59:43.742Z,59.86
2019-02-20T04:00:47.318Z,59.89
2019-02-20T04:01:50.810Z,59.77
2019-02-20T04:02:54.336Z,59.58
2019-02-20T04:03:57.851Z,59.40
2019-02-20T04:05:01.418Z,59.33
2019-02-20T04:06:05.053Z,59.25
2019-02-20T04:07:08.613Z,59.18
2019-02-20T04:08:12.116Z,59.14
2019-02-20T04:09:15.710Z,59.15
2019-02-20T04:10:19.178Z,59.05
2019-02-20T04:11:22.694Z,59.14
2019-02-20T04:12:26.183Z,59.09
2019-02-20T04:13:29.845Z,59.04
2019-02-20T04:14:33.439Z,58.99
2019-02-20T04:15:36.988Z,58.82
2019-02-20T04:16:40.473Z,58.62
2019-02-20T04:17:43.987Z,58.48
2019-02-20T04:18:47.512Z,58.36
2019-02-20T04:19:51.077Z,58.28
2019-02-20T04:20:54.590Z,58.05
2019-02-20T04:21:58.070Z,57.98
2019-02-20T04:23:01.579Z,57.76
2019-02-20T04:24:05.157Z,57.51
2019-02-20T04:25:08.709Z,57.47
2019-02-20T04:26:12.233Z,57.22
2019-02-20T04:27:15.694Z,57.13
2019-02-20T04:28:19.212Z,56.87
2019-02-20T04:29:22.818Z,56.77
2019-02-20T04:30:26.369Z,56.58
2019-02-20T04:31:29.905Z,56.46
2019-02-20T04:32:33.382Z,56.36
2019-02-20T04:33:36.879Z,56.37
2019-02-20T04:34:40.485Z,56.31
2019-02-20T04:35:44.001Z,56.26
2019-02-20T04:36:47.508Z,56.13
2019-02-20T04:37:51.023Z,56.17
2019-02-20T04:38:54.527Z,56.14
2019-02-20T04:39:58.075Z,56.02
2019-02-20T04:41:01.563Z,55.93
2019-02-20T04:42:05.110Z,55.92
2019-02-20T04:43:08.651Z,55.97
2019-02-20T04:44:12.186Z,55.89
2019-02-20T04:45:15.735Z,55.98
2019-02-20T04:46:19.256Z,55.83
2019-02-20T04:47:22.751Z,55.91
2019-02-20T04:48:26.280Z,55.75
2019-02-20T04:49:29.908Z,55.73
2019-02-20T04:50:33.411Z,55.79
2019-02-20T04:51:36.997Z,55.67
2019-02-20T04:52:40.485Z,55.73
2019-02-20T04:53:43.971Z,55.77
2019-02-20T04:54:50.587Z,55.79
2019-02-20T04:55:54.214Z,55.67
2019-02-20T04:56:57.684Z,55.78
2019-02-20T04:58:17.816Z,55.78
2019-02-20T04:59:21.391Z,55.80
2019-02-20T05:00:24.894Z,55.81
2019-02-20T05:01:28.677Z,55.85
2019-02-20T05:02:32.306Z,55.85
2019-02-20T05:03:35.800Z,55.85
2019-02-20T05:04:39.314Z,55.89
2019-02-20T05:05:42.875Z,55.93
2019-02-20T05:06:46.409Z,55.89
2019-02-20T05:07:49.933Z,55.84
2019-02-20T05:08:53.410Z,55.84
2019-02-20T05:09:56.926Z,55.90
2019-02-20T05:11:00.509Z,55.77
2019-02-20T05:12:04.019Z,55.83
2019-02-20T05:13:07.603Z,55.91
2019-02-20T05:14:11.091Z,55.92
2019-02-20T05:15:14.665Z,55.97
2019-02-20T05:16:18.187Z,55.96
2019-02-20T05:17:21.699Z,56.02
2019-02-20T05:18:25.277Z,56.11
2019-02-20T05:19:28.758Z,56.19
2019-02-20T05:20:32.310Z,56.25
2019-02-20T05:21:35.811Z,56.34
2019-02-20T05:22:39.334Z,56.34
2019-02-20T05:23:43.106Z,56.38
2019-02-20T05:24:46.649Z,56.00
2019-02-20T05:25:50.117Z,56.00
2019-02-20T05:26:53.660Z,56.37
2019-02-20T05:27:57.134Z,56.50
2019-02-20T05:29:00.635Z,56.91
2019-02-20T05:30:04.932Z,57.04
2019-02-20T05:31:08.407Z,56.90
2019-02-20T05:32:11.938Z,56.75
2019-02-20T05:33:15.530Z,56.71
2019-02-20T05:34:19.011Z,56.71
2019-02-20T05:35:22.504Z,56.71
2019-02-20T05:36:26.063Z,56.56
2019-02-20T05:37:29.617Z,56.56
2019-02-20T05:38:33.244Z,56.57
2019-02-20T05:39:36.728Z,56.51
2019-02-20T05:40:40.283Z,56.63
2019-02-20T05:41:43.777Z,56.61
2019-02-20T05:42:48.354Z,56.60
2019-02-20T05:43:51.969Z,56.65
2019-02-20T05:44:55.447Z,56.63
2019-02-20T05:45:59.002Z,56.54
2019-02-20T05:47:02.584Z,56.48
2019-02-20T05:48:06.073Z,56.44
2019-02-20T05:49:10.333Z,56.40
2019-02-20T05:50:14.017Z,56.41
2019-02-20T05:51:17.486Z,56.41
2019-02-20T05:52:21.080Z,56.37
2019-02-20T05:53:24.556Z,56.49
2019-02-20T05:54:34.396Z,56.45
2019-02-20T05:55:33.344Z,56.33
2019-02-20T05:56:36.831Z,56.16
2019-02-20T05:57:40.421Z,56.32
2019-02-20T05:58:43.943Z,56.30
2019-02-20T05:59:47.510Z,55.95
2019-02-20T06:00:51.009Z,55.57
2019-02-20T06:01:54.523Z,55.65
2019-02-20T06:02:58.059Z,55.53
2019-02-20T06:04:01.563Z,55.20
2019-02-20T06:05:06.310Z,55.09
2019-02-20T06:06:09.802Z,54.72
2019-02-20T06:07:13.304Z,54.27
2019-02-20T06:08:16.806Z,54.83
2019-02-20T06:09:20.314Z,54.26
2019-02-20T06:10:23.826Z,54.25
2019-02-20T06:11:27.389Z,54.23
2019-02-20T06:12:30.888Z,53.99
2019-02-20T06:13:34.405Z,53.40
2019-02-20T06:14:37.960Z,51.91
2019-02-20T06:15:43.034Z,51.93
2019-02-20T06:16:46.655Z,51.78
2019-02-20T06:17:50.179Z,51.66
2019-02-20T06:18:53.672Z,51.71
2019-02-20T06:19:57.200Z,50.58
2019-02-20T06:21:00.816Z,49.27
2019-02-20T06:22:04.312Z,48.37
2019-02-20T06:23:07.887Z,47.42
2019-02-20T06:24:11.378Z,47.58
2019-02-20T06:25:14.961Z,48.11
2019-02-20T06:26:18.551Z,48.42
2019-02-20T06:27:22.057Z,48.59
2019-02-20T06:28:25.570Z,48.61
2019-02-20T06:29:29.143Z,48.70
2019-02-20T06:30:32.639Z,48.84
2019-02-20T06:31:36.253Z,48.97
2019-02-20T06:32:39.756Z,49.09
2019-02-20T06:33:43.254Z,49.28
2019-02-20T06:34:46.908Z,49.33
2019-02-20T06:35:50.411Z,49.53
2019-02-20T06:36:54.086Z,49.65
2019-02-20T06:37:57.614Z,49.78
2019-02-20T06:39:01.099Z,49.81
2019-02-20T06:40:06.139Z,50.03
2019-02-20T06:41:09.640Z,50.15
2019-02-20T06:42:13.158Z,50.30
2019-02-20T06:43:16.650Z,50.35
2019-02-20T06:44:20.170Z,50.47
2019-02-20T06:45:23.757Z,50.62
2019-02-20T06:46:27.256Z,50.72
2019-02-20T06:47:30.770Z,50.83
2019-02-20T06:48:34.262Z,50.94
2019-02-20T06:49:37.767Z,51.06
2019-02-20T06:50:41.372Z,51.17
2019-02-20T06:51:44.890Z,51.24
2019-02-20T06:52:48.420Z,51.34
2019-02-20T06:53:52.093Z,51.42
2019-02-20T06:54:55.607Z,51.51
2019-02-20T06:55:59.097Z,51.60
2019-02-20T06:57:02.690Z,51.69
2019-02-20T06:58:06.277Z,51.78
2019-02-20T06:59:09.785Z,51.84
2019-02-20T07:00:14.438Z,51.91
2019-02-20T07:01:17.932Z,51.98
2019-02-20T07:02:21.526Z,52.05
2019-02-20T07:03:25.032Z,52.11
2019-02-20T07:04:28.603Z,52.17
2019-02-20T07:05:34.526Z,52.24
2019-02-20T07:06:43.637Z,52.30
2019-02-20T07:08:13.939Z,52.39
2019-02-20T07:09:45.845Z,52.46
2019-02-20T07:11:14.617Z,52.53
2019-02-20T07:12:29.282Z,52.59
2019-02-20T07:13:53.802Z,52.66
2019-02-20T07:15:11.989Z,52.70
2019-02-20T07:16:21.138Z,52.76
2019-02-20T07:17:48.356Z,52.80
2019-02-20T07:19:00.964Z,52.87
2019-02-20T07:20:23.797Z,52.90
2019-02-20T07:21:48.388Z,52.94
2019-02-20T07:23:14.315Z,52.97
2019-02-20T07:24:29.849Z,53.02
2019-02-20T07:25:39.225Z,53.04
2019-02-20T07:27:00.796Z,53.08
2019-02-20T07:28:26.825Z,53.14
2019-02-20T07:29:44.367Z,53.19
2019-02-20T07:30:47.978Z,53.21
2019-02-20T07:31:51.521Z,53.24
2019-02-20T07:32:55.094Z,53.28
2019-02-20T07:33:58.618Z,53.36
2019-02-20T07:35:02.095Z,53.38
2019-02-20T07:36:05.699Z,53.40
2019-02-20T07:37:09.354Z,53.43
2019-02-20T07:38:12.922Z,53.44
2019-02-20T07:39:16.426Z,53.46
2019-02-20T07:40:19.934Z,53.48
2019-02-20T07:41:23.443Z,53.50
2019-02-20T07:42:27.012Z,53.52
2019-02-20T07:43:30.484Z,53.54
2019-02-20T07:44:34.069Z,53.55
2019-02-20T07:45:37.613Z,53.60
2019-02-20T07:46:41.101Z,53.58
2019-02-20T07:47:44.661Z,53.61
2019-02-20T07:48:48.210Z,53.59
2019-02-20T07:49:51.707Z,53.63
2019-02-20T07:50:55.220Z,53.63
2019-02-20T07:51:58.820Z,53.65
2019-02-20T07:53:02.403Z,53.67
2019-02-20T07:54:05.975Z,53.71
2019-02-20T07:55:13.249Z,53.70
2019-02-20T07:56:14.973Z,53.71
2019-02-20T07:57:18.480Z,53.72
2019-02-20T07:58:21.934Z,53.72
2019-02-20T07:59:25.445Z,53.69
2019-02-20T08:00:28.933Z,53.71
2019-02-20T08:01:32.434Z,53.74
2019-02-20T08:02:35.970Z,53.78
2019-02-20T08:03:39.464Z,53.78
2019-02-20T08:04:43.034Z,53.79
2019-02-20T08:05:46.528Z,53.80
2019-02-20T08:06:50.005Z,53.82
2019-02-20T08:07:53.547Z,53.82
2019-02-20T08:08:57.026Z,53.84
2019-02-20T08:10:00.532Z,53.86
2019-02-20T08:11:04.098Z,53.86
2019-02-20T08:12:07.610Z,53.89
2019-02-20T08:13:11.227Z,53.92
2019-02-20T08:14:14.771Z,53.95
2019-02-20T08:15:18.261Z,53.96
2019-02-20T08:16:21.843Z,53.96
2019-02-20T08:17:25.501Z,53.97
2019-02-20T08:18:29.102Z,53.95
2019-02-20T08:19:32.814Z,53.95
2019-02-20T08:20:36.368Z,53.96
2019-02-20T08:21:39.862Z,53.98
2019-02-20T08:22:43.365Z,53.99
2019-02-20T08:23:46.874Z,54.01
2019-02-20T08:24:50.425Z,54.02
2019-02-20T08:25:53.913Z,54.02
2019-02-20T08:26:57.407Z,54.02
2019-02-20T08:28:00.972Z,54.02
2019-02-20T08:29:04.625Z,54.06
2019-02-20T08:30:11.391Z,54.06
2019-02-20T08:31:14.941Z,54.07
2019-02-20T08:32:18.477Z,54.09
2019-02-20T08:33:21.963Z,54.08
2019-02-20T08:34:25.585Z,54.08
2019-02-20T08:35:29.153Z,54.09
2019-02-20T08:36:32.656Z,54.10
2019-02-20T08:37:36.138Z,54.09
2019-02-20T08:38:39.640Z,54.08
2019-02-20T08:39:43.160Z,54.08
2019-02-20T08:40:46.721Z,54.09
2019-02-20T08:41:50.341Z,54.09
2019-02-20T08:42:53.972Z,54.09
2019-02-20T08:43:58.028Z,54.08
2019-02-20T08:45:01.550Z,54.08
2019-02-20T08:46:05.186Z,54.10
2019-02-20T08:47:08.697Z,54.08
2019-02-20T08:48:12.170Z,54.08
2019-02-20T08:49:15.657Z,54.08
2019-02-20T08:50:19.258Z,54.10
2019-02-20T08:51:22.820Z,54.11
2019-02-20T08:52:26.326Z,54.10
2019-02-20T08:53:29.824Z,54.10
2019-02-20T08:54:33.501Z,54.10
2019-02-20T08:55:37.022Z,54.13
2019-02-20T08:56:40.517Z,54.12
2019-02-20T08:57:44.085Z,54.12
2019-02-20T08:58:47.579Z,54.13
2019-02-20T08:59:51.805Z,54.14
2019-02-20T09:00:55.449Z,54.13
2019-02-20T09:01:59.014Z,54.13
2019-02-20T09:03:02.569Z,54.12
2019-02-20T09:04:06.219Z,54.10
2019-02-20T09:05:11.254Z,54.09
2019-02-20T09:06:14.783Z,54.12
2019-02-20T09:07:18.303Z,54.09
2019-02-20T09:08:21.943Z,54.10
2019-02-20T09:09:25.579Z,54.09
2019-02-20T09:10:29.069Z,54.10
2019-02-20T09:11:32.580Z,54.10
2019-02-20T09:12:36.148Z,54.10
2019-02-20T09:13:39.637Z,54.09
2019-02-20T09:14:43.141Z,54.09
2019-02-20T09:15:46.636Z,54.09
2019-02-20T09:16:50.144Z,54.09
2019-02-20T09:17:53.639Z,54.08
2019-02-20T09:18:57.130Z,54.05
2019-02-20T09:20:00.648Z,54.06
2019-02-20T09:21:04.224Z,54.07
2019-02-20T09:22:07.832Z,54.05
2019-02-20T09:23:11.312Z,54.06
2019-02-20T09:24:14.813Z,54.04
2019-02-20T09:25:20.118Z,54.07
2019-02-20T09:26:23.646Z,54.06
2019-02-20T09:27:27.186Z,54.05
2019-02-20T09:28:30.679Z,54.06
2019-02-20T09:29:34.242Z,54.03
2019-02-20T09:30:37.720Z,54.06
2019-02-20T09:31:41.246Z,54.05
2019-02-20T09:32:44.811Z,54.04
2019-02-20T09:33:48.334Z,54.02
2019-02-20T09:34:51.962Z,53.98
2019-02-20T09:35:55.450Z,53.96
2019-02-20T09:36:59.012Z,53.97
2019-02-20T09:38:02.550Z,53.96
2019-02-20T09:39:26.833Z,53.97
2019-02-20T09:40:30.321Z,53.97
2019-02-20T09:41:33.891Z,53.95
2019-02-20T09:42:38.510Z,53.97
2019-02-20T09:43:42.641Z,53.97
2019-02-20T09:44:46.597Z,53.99
2019-02-20T09:45:50.171Z,53.99
2019-02-20T09:46:53.740Z,53.98
2019-02-20T09:47:57.270Z,53.98
2019-02-20T09:49:00.781Z,53.98
2019-02-20T09:50:05.147Z,53.97
2019-02-20T09:51:08.708Z,54.00
2019-02-20T09:52:12.204Z,54.01
2019-02-20T09:53:15.785Z,53.98
2019-02-20T09:54:19.387Z,53.95
2019-02-20T09:55:22.958Z,53.96
2019-02-20T09:56:26.470Z,53.94
2019-02-20T09:57:29.971Z,53.93
2019-02-20T09:58:33.457Z,53.92
2019-02-20T09:59:36.975Z,53.93
2019-02-20T10:00:40.468Z,53.92
2019-02-20T10:01:43.956Z,53.87
2019-02-20T10:02:47.593Z,53.88
2019-02-20T10:03:51.082Z,53.87
2019-02-20T10:04:54.663Z,53.83
2019-02-20T10:05:58.162Z,53.84
2019-02-20T10:07:01.759Z,53.82
2019-02-20T10:08:05.322Z,53.81
2019-02-20T10:09:08.813Z,53.78
2019-02-20T10:10:13.072Z,53.75
2019-02-20T10:11:16.635Z,53.72
2019-02-20T10:12:20.126Z,53.68
2019-02-20T10:13:23.621Z,53.65
2019-02-20T10:14:27.181Z,53.63
2019-02-20T10:15:30.711Z,53.61
2019-02-20T10:16:34.213Z,53.60
2019-02-20T10:17:37.704Z,53.57
2019-02-20T10:18:41.250Z,53.54
2019-02-20T10:19:44.723Z,53.52
2019-02-20T10:20:48.258Z,53.50
2019-02-20T10:21:51.741Z,53.47
2019-02-20T10:22:55.251Z,53.43
2019-02-20T10:23:58.751Z,53.42
2019-02-20T10:25:02.372Z,53.38
2019-02-20T10:26:05.983Z,53.38
2019-02-20T10:27:09.621Z,53.38
2019-02-20T10:28:13.113Z,53.36
2019-02-20T10:29:16.616Z,53.34
2019-02-20T10:30:20.531Z,53.36
2019-02-20T10:31:24.064Z,53.36
2019-02-20T10:32:27.699Z,53.38
2019-02-20T10:33:31.200Z,53.37
2019-02-20T10:34:34.699Z,53.39
2019-02-20T10:35:38.246Z,53.41
2019-02-20T10:36:41.782Z,53.37
2019-02-20T10:37:45.405Z,53.38
2019-02-20T10:38:48.919Z,53.37
2019-02-20T10:39:52.417Z,53.33
2019-02-20T10:40:55.977Z,53.32
2019-02-20T10:41:59.530Z,53.30
2019-02-20T10:43:03.619Z,53.30
2019-02-20T10:44:07.179Z,53.27
2019-02-20T10:45:12.124Z,53.26
2019-02-20T10:46:15.603Z,53.25
2019-02-20T10:47:19.208Z,53.27
2019-02-20T10:48:22.962Z,53.25
2019-02-20T10:49:26.432Z,53.23
2019-02-20T10:50:29.936Z,53.22
2019-02-20T10:51:33.412Z,53.18
2019-02-20T10:52:36.924Z,53.16
2019-02-20T10:53:40.440Z,53.16
2019-02-20T10:54:45.605Z,53.17
2019-02-20T10:55:49.197Z,53.14
2019-02-20T10:56:52.721Z,53.13
2019-02-20T10:57:56.294Z,53.10
2019-02-20T10:58:59.813Z,53.10
2019-02-20T11:00:06.232Z,53.08
2019-02-20T11:01:09.701Z,53.08
2019-02-20T11:02:13.349Z,53.08
2019-02-20T11:03:16.929Z,53.08
2019-02-20T11:04:20.509Z,53.09
2019-02-20T11:05:24.010Z,53.09
2019-02-20T11:06:27.492Z,53.08
2019-02-20T11:07:31.014Z,53.08
2019-02-20T11:08:34.532Z,53.08
2019-02-20T11:09:38.086Z,53.11
2019-02-20T11:10:41.603Z,53.12
2019-02-20T11:11:45.083Z,53.17
2019-02-20T11:12:50.164Z,53.20
2019-02-20T11:13:53.797Z,53.22
2019-02-20T11:14:57.412Z,53.23
2019-02-20T11:16:00.936Z,53.25
2019-02-20T11:17:04.480Z,53.25
2019-02-20T11:18:08.048Z,53.27
2019-02-20T11:19:11.585Z,53.30
2019-02-20T11:20:15.136Z,53.32
2019-02-20T11:21:18.667Z,53.34
2019-02-20T11:22:22.155Z,53.36
2019-02-20T11:23:25.661Z,53.39
2019-02-20T11:24:29.224Z,53.42
2019-02-20T11:25:32.749Z,53.44
2019-02-20T11:26:46.099Z,53.45
2019-02-20T11:27:41.515Z,53.46
2019-02-20T11:28:45.006Z,53.47
2019-02-20T11:29:48.615Z,53.49
2019-02-20T11:30:52.186Z,53.51
2019-02-20T11:31:56.558Z,53.52
2019-02-20T11:33:00.145Z,53.50
2019-02-20T11:34:03.731Z,53.52
2019-02-20T11:35:08.484Z,53.51
2019-02-20T11:36:12.053Z,53.52
2019-02-20T11:37:15.528Z,53.55
2019-02-20T11:38:19.053Z,53.55
2019-02-20T11:39:22.623Z,53.57
2019-02-20T11:40:26.685Z,53.58
2019-02-20T11:41:30.320Z,53.58
2019-02-20T11:42:33.817Z,53.58
2019-02-20T11:43:37.301Z,53.59
2019-02-20T11:44:40.816Z,53.60
2019-02-20T11:45:44.472Z,53.61
2019-02-20T11:46:47.958Z,53.65
2019-02-20T11:47:51.527Z,53.62
2019-02-20T11:48:55.038Z,53.63
2019-02-20T11:49:58.553Z,53.62
2019-02-20T11:51:02.152Z,53.61
2019-02-20T11:52:05.639Z,53.60
2019-02-20T11:53:09.203Z,53.59
2019-02-20T11:54:12.743Z,53.60
2019-02-20T11:55:16.401Z,53.61
2019-02-20T11:56:26.466Z,53.59
2019-02-20T11:57:25.179Z,53.59
2019-02-20T11:58:28.793Z,53.59
2019-02-20T11:59:32.360Z,53.56
2019-02-20T12:00:35.921Z,53.54
2019-02-20T12:01:39.570Z,53.53
2019-02-20T12:02:43.073Z,53.53
2019-02-20T12:03:46.636Z,53.52
2019-02-20T12:04:50.114Z,53.52
2019-02-20T12:05:53.609Z,53.54
2019-02-20T12:06:57.267Z,53.52
2019-02-20T12:08:00.780Z,53.55
2019-02-20T12:09:05.312Z,53.56
2019-02-20T12:10:12.805Z,53.54
2019-02-20T12:11:16.514Z,53.52
2019-02-20T12:12:20.140Z,53.55
2019-02-20T12:13:23.705Z,53.54
2019-02-20T12:14:27.360Z,53.54
2019-02-20T12:15:30.911Z,53.55
2019-02-20T12:16:34.405Z,53.55
2019-02-20T12:17:38.171Z,53.53
2019-02-20T12:18:41.814Z,53.54
2019-02-20T12:19:45.365Z,53.56
2019-02-20T12:20:48.930Z,53.56
2019-02-20T12:21:52.496Z,53.55
2019-02-20T12:22:56.088Z,53.57
2019-02-20T12:23:59.602Z,53.56
2019-02-20T12:25:03.196Z,53.55
2019-02-20T12:26:06.772Z,53.53
2019-02-20T12:27:10.256Z,53.53
2019-02-20T12:28:13.771Z,53.49
2019-02-20T12:29:17.332Z,53.49
2019-02-20T12:30:20.915Z,53.48
2019-02-20T12:31:24.406Z,53.49
2019-02-20T12:32:28.040Z,53.49
2019-02-20T12:33:31.562Z,53.50
2019-02-20T12:34:35.122Z,53.50
2019-02-20T12:35:38.769Z,53.50
2019-02-20T12:36:42.263Z,53.50
2019-02-20T12:37:45.799Z,53.52
2019-02-20T12:38:49.303Z,53.50
2019-02-20T12:39:52.822Z,53.50
2019-02-20T12:40:56.379Z,53.49
2019-02-20T12:41:59.988Z,53.47
2019-02-20T12:43:03.500Z,53.48
2019-02-20T12:44:07.026Z,53.44
2019-02-20T12:45:10.922Z,53.45
2019-02-20T12:46:14.555Z,53.43
2019-02-20T12:47:18.121Z,53.44
2019-02-20T12:48:21.628Z,53.46
2019-02-20T12:49:25.264Z,53.46
2019-02-20T12:50:28.820Z,53.47
2019-02-20T12:51:32.314Z,53.45
2019-02-20T12:52:35.841Z,53.46
2019-02-20T12:53:39.418Z,53.46
2019-02-20T12:54:42.990Z,53.48
2019-02-20T12:55:46.481Z,53.46
2019-02-20T12:56:50.061Z,53.46
2019-02-20T12:57:53.618Z,53.47
2019-02-20T12:58:57.127Z,53.46
2019-02-20T13:00:00.732Z,53.46
2019-02-20T13:01:04.584Z,53.44
2019-02-20T13:02:08.237Z,53.46
2019-02-20T13:03:11.762Z,53.48
2019-02-20T13:04:15.390Z,53.46
2019-02-20T13:05:18.995Z,53.45
2019-02-20T13:06:22.466Z,53.47
2019-02-20T13:07:25.969Z,53.45
2019-02-20T13:08:29.646Z,53.46
2019-02-20T13:09:33.201Z,53.45
2019-02-20T13:10:36.803Z,53.45
2019-02-20T13:11:40.356Z,53.45
2019-02-20T13:12:43.920Z,53.43
2019-02-20T13:13:49.070Z,53.43
2019-02-20T13:14:52.761Z,53.41
2019-02-20T13:15:56.300Z,53.42
2019-02-20T13:16:59.944Z,53.42
2019-02-20T13:18:03.494Z,53.42
2019-02-20T13:19:07.055Z,53.43
2019-02-20T13:20:11.683Z,53.41
2019-02-20T13:21:15.263Z,53.42
2019-02-20T13:22:18.853Z,53.42
2019-02-20T13:23:22.409Z,53.42
2019-02-20T13:24:26.049Z,53.42
2019-02-20T13:25:29.592Z,53.42
2019-02-20T13:26:33.236Z,53.41
2019-02-20T13:27:36.776Z,53.41
2019-02-20T13:28:40.242Z,53.41
2019-02-20T13:29:43.802Z,53.41
2019-02-20T13:30:47.309Z,53.43
2019-02-20T13:31:50.828Z,53.43
2019-02-20T13:32:54.459Z,53.39
2019-02-20T13:33:57.969Z,53.38
2019-02-20T13:35:01.452Z,53.37
2019-02-20T13:36:05.737Z,53.36
2019-02-20T13:37:09.225Z,53.35
2019-02-20T13:38:12.707Z,53.37
2019-02-20T13:39:16.217Z,53.32
2019-02-20T13:40:19.707Z,53.30
2019-02-20T13:41:23.317Z,53.29
2019-02-20T13:42:26.834Z,53.25
2019-02-20T13:43:30.463Z,53.25
2019-02-20T13:44:34.042Z,53.26
2019-02-20T13:45:37.527Z,53.27